sensor_id;sensor_type;location;lat;lon;timestamp;P1;durP1;ratioP1;P2;durP2;ratioP2
485;SDS011;229;48.734;9.340;2023-04-16T00:01:34;16.45;;;12.35;;
485;SDS011;229;48.734;9.340;2023-04-16T00:04:01;17.00;;;13.73;;
485;SDS011;229;48.734;9.340;2023-04-16T00:06:29;16.85;;;12.73;;
485;SDS011;229;48.734;9.340;2023-04-16T00:08:56;16.58;;;12.55;;
485;SDS011;229;48.734;9.340;2023-04-16T00:11:23;18.17;;;13.63;;
485;SDS011;229;48.734;9.340;2023-04-16T00:13:52;18.02;;;13.10;;
485;SDS011;229;48.734;9.340;2023-04-16T00:16:19;17.65;;;13.13;;
485;SDS011;229;48.734;9.340;2023-04-16T00:18:46;17.02;;;13.32;;
485;SDS011;229;48.734;9.340;2023-04-16T00:21:13;18.48;;;14.23;;
485;SDS011;229;48.734;9.340;2023-04-16T00:23:40;20.20;;;14.85;;
485;SDS011;229;48.734;9.340;2023-04-16T00:26:07;16.50;;;13.98;;
485;SDS011;229;48.734;9.340;2023-04-16T00:28:35;17.20;;;13.20;;
485;SDS011;229;48.734;9.340;2023-04-16T00:31:05;16.25;;;13.23;;
485;SDS011;229;48.734;9.340;2023-04-16T00:33:32;19.25;;;14.85;;
485;SDS011;229;48.734;9.340;2023-04-16T00:35:59;18.38;;;12.80;;
485;SDS011;229;48.734;9.340;2023-04-16T00:38:26;16.92;;;12.90;;
485;SDS011;229;48.734;9.340;2023-04-16T00:40:56;17.58;;;13.68;;
485;SDS011;229;48.734;9.340;2023-04-16T00:43:23;17.83;;;14.20;;
485;SDS011;229;48.734;9.340;2023-04-16T00:45:51;17.90;;;14.15;;
485;SDS011;229;48.734;9.340;2023-04-16T00:48:21;19.45;;;14.50;;
485;SDS011;229;48.734;9.340;2023-04-16T00:50:48;19.95;;;14.93;;
485;SDS011;229;48.734;9.340;2023-04-16T00:53:16;18.42;;;14.10;;
485;SDS011;229;48.734;9.340;2023-04-16T00:55:43;19.95;;;14.00;;
485;SDS011;229;48.734;9.340;2023-04-16T00:58:10;20.15;;;14.43;;
485;SDS011;229;48.734;9.340;2023-04-16T01:00:37;19.08;;;13.98;;
485;SDS011;229;48.734;9.340;2023-04-16T01:03:05;19.05;;;14.20;;
485;SDS011;229;48.734;9.340;2023-04-16T01:05:34;17.50;;;13.98;;
485;SDS011;229;48.734;9.340;2023-04-16T01:08:01;19.40;;;14.43;;
485;SDS011;229;48.734;9.340;2023-04-16T01:10:28;19.90;;;14.80;;
485;SDS011;229;48.734;9.340;2023-04-16T01:12:55;18.80;;;13.85;;
485;SDS011;229;48.734;9.340;2023-04-16T01:15:23;19.00;;;14.48;;
485;SDS011;229;48.734;9.340;2023-04-16T01:17:50;17.27;;;13.48;;
485;SDS011;229;48.734;9.340;2023-04-16T01:20:17;18.63;;;13.75;;
485;SDS011;229;48.734;9.340;2023-04-16T01:22:46;17.50;;;13.23;;
485;SDS011;229;48.734;9.340;2023-04-16T01:25:13;18.40;;;14.13;;
485;SDS011;229;48.734;9.340;2023-04-16T01:27:41;18.35;;;14.60;;
485;SDS011;229;48.734;9.340;2023-04-16T01:30:08;16.77;;;13.52;;
485;SDS011;229;48.734;9.340;2023-04-16T01:32:35;20.63;;;14.45;;
485;SDS011;229;48.734;9.340;2023-04-16T01:35:03;18.40;;;14.23;;
485;SDS011;229;48.734;9.340;2023-04-16T01:37:30;18.70;;;13.25;;
485;SDS011;229;48.734;9.340;2023-04-16T01:39:58;17.52;;;13.25;;
485;SDS011;229;48.734;9.340;2023-04-16T01:42:25;17.58;;;13.70;;
485;SDS011;229;48.734;9.340;2023-04-16T01:44:53;17.60;;;13.75;;
485;SDS011;229;48.734;9.340;2023-04-16T01:47:20;15.93;;;13.35;;
485;SDS011;229;48.734;9.340;2023-04-16T01:49:47;18.08;;;14.15;;
485;SDS011;229;48.734;9.340;2023-04-16T01:52:14;20.08;;;14.07;;
485;SDS011;229;48.734;9.340;2023-04-16T01:54:41;17.92;;;13.98;;
485;SDS011;229;48.734;9.340;2023-04-16T01:57:10;17.75;;;13.80;;
485;SDS011;229;48.734;9.340;2023-04-16T01:59:37;17.95;;;13.48;;
485;SDS011;229;48.734;9.340;2023-04-16T02:02:06;15.55;;;12.10;;
485;SDS011;229;48.734;9.340;2023-04-16T02:04:35;16.35;;;13.15;;
485;SDS011;229;48.734;9.340;2023-04-16T02:07:02;16.67;;;12.65;;
485;SDS011;229;48.734;9.340;2023-04-16T02:09:29;18.27;;;12.73;;
485;SDS011;229;48.734;9.340;2023-04-16T02:11:57;15.88;;;12.15;;
485;SDS011;229;48.734;9.340;2023-04-16T02:14:25;17.35;;;13.23;;
485;SDS011;229;48.734;9.340;2023-04-16T02:16:52;15.93;;;12.35;;
485;SDS011;229;48.734;9.340;2023-04-16T02:19:20;13.57;;;10.88;;
485;SDS011;229;48.734;9.340;2023-04-16T02:21:47;19.67;;;12.75;;
485;SDS011;229;48.734;9.340;2023-04-16T02:24:14;15.55;;;12.00;;
485;SDS011;229;48.734;9.340;2023-04-16T02:26:41;14.68;;;11.85;;
485;SDS011;229;48.734;9.340;2023-04-16T02:29:09;16.25;;;12.48;;
485;SDS011;229;48.734;9.340;2023-04-16T02:31:37;17.52;;;12.27;;
485;SDS011;229;48.734;9.340;2023-04-16T02:34:05;16.30;;;12.43;;
485;SDS011;229;48.734;9.340;2023-04-16T02:36:32;14.18;;;11.25;;
485;SDS011;229;48.734;9.340;2023-04-16T02:38:59;16.15;;;12.18;;
485;SDS011;229;48.734;9.340;2023-04-16T02:41:26;16.55;;;12.30;;
485;SDS011;229;48.734;9.340;2023-04-16T02:43:54;17.27;;;11.50;;
485;SDS011;229;48.734;9.340;2023-04-16T02:46:21;18.83;;;13.23;;
485;SDS011;229;48.734;9.340;2023-04-16T02:48:49;16.50;;;13.23;;
485;SDS011;229;48.734;9.340;2023-04-16T02:51:17;16.00;;;12.20;;
485;SDS011;229;48.734;9.340;2023-04-16T02:53:44;15.80;;;11.93;;
485;SDS011;229;48.734;9.340;2023-04-16T02:56:11;14.45;;;11.45;;
485;SDS011;229;48.734;9.340;2023-04-16T02:58:39;15.48;;;11.38;;
485;SDS011;229;48.734;9.340;2023-04-16T03:01:06;16.30;;;11.93;;
485;SDS011;229;48.734;9.340;2023-04-16T03:03:33;17.13;;;12.85;;
485;SDS011;229;48.734;9.340;2023-04-16T03:06:01;16.92;;;12.10;;
485;SDS011;229;48.734;9.340;2023-04-16T03:08:29;15.75;;;12.25;;
485;SDS011;229;48.734;9.340;2023-04-16T03:10:56;16.38;;;12.38;;
485;SDS011;229;48.734;9.340;2023-04-16T03:13:23;17.77;;;13.63;;
485;SDS011;229;48.734;9.340;2023-04-16T03:15:50;18.65;;;13.00;;
485;SDS011;229;48.734;9.340;2023-04-16T03:18:17;17.23;;;12.63;;
485;SDS011;229;48.734;9.340;2023-04-16T03:20:44;16.65;;;12.23;;
485;SDS011;229;48.734;9.340;2023-04-16T03:23:13;17.20;;;12.60;;
485;SDS011;229;48.734;9.340;2023-04-16T03:25:40;17.00;;;12.23;;
485;SDS011;229;48.734;9.340;2023-04-16T03:28:10;21.50;;;13.80;;
485;SDS011;229;48.734;9.340;2023-04-16T03:30:37;17.90;;;13.52;;
485;SDS011;229;48.734;9.340;2023-04-16T03:33:04;18.42;;;12.95;;
485;SDS011;229;48.734;9.340;2023-04-16T03:35:32;15.75;;;12.43;;
485;SDS011;229;48.734;9.340;2023-04-16T03:37:59;16.88;;;13.35;;
485;SDS011;229;48.734;9.340;2023-04-16T03:40:27;16.08;;;12.95;;
485;SDS011;229;48.734;9.340;2023-04-16T03:42:55;18.23;;;13.85;;
485;SDS011;229;48.734;9.340;2023-04-16T03:45:22;16.83;;;13.00;;
485;SDS011;229;48.734;9.340;2023-04-16T03:47:49;17.95;;;13.10;;
485;SDS011;229;48.734;9.340;2023-04-16T03:50:17;16.55;;;12.73;;
485;SDS011;229;48.734;9.340;2023-04-16T03:52:44;19.63;;;13.73;;
485;SDS011;229;48.734;9.340;2023-04-16T03:55:13;17.75;;;13.10;;
485;SDS011;229;48.734;9.340;2023-04-16T03:57:42;18.95;;;13.20;;
485;SDS011;229;48.734;9.340;2023-04-16T04:00:09;21.50;;;14.88;;
485;SDS011;229;48.734;9.340;2023-04-16T04:02:36;18.63;;;12.75;;
485;SDS011;229;48.734;9.340;2023-04-16T04:05:04;17.60;;;13.07;;
485;SDS011;229;48.734;9.340;2023-04-16T04:07:31;19.65;;;13.60;;
485;SDS011;229;48.734;9.340;2023-04-16T04:09:58;18.95;;;13.13;;
485;SDS011;229;48.734;9.340;2023-04-16T04:12:25;19.00;;;12.75;;
485;SDS011;229;48.734;9.340;2023-04-16T04:14:54;20.52;;;13.40;;
485;SDS011;229;48.734;9.340;2023-04-16T04:17:21;17.52;;;12.70;;
485;SDS011;229;48.734;9.340;2023-04-16T04:19:48;19.40;;;13.23;;
485;SDS011;229;48.734;9.340;2023-04-16T04:22:16;19.65;;;13.80;;
485;SDS011;229;48.734;9.340;2023-04-16T04:24:43;18.80;;;13.13;;
485;SDS011;229;48.734;9.340;2023-04-16T04:27:10;22.23;;;14.90;;
485;SDS011;229;48.734;9.340;2023-04-16T04:29:37;19.98;;;13.98;;
485;SDS011;229;48.734;9.340;2023-04-16T04:32:06;20.60;;;14.70;;
485;SDS011;229;48.734;9.340;2023-04-16T04:34:33;20.95;;;14.10;;
485;SDS011;229;48.734;9.340;2023-04-16T04:37:00;22.38;;;14.63;;
485;SDS011;229;48.734;9.340;2023-04-16T04:39:28;18.88;;;13.18;;
485;SDS011;229;48.734;9.340;2023-04-16T04:41:56;19.67;;;13.13;;
485;SDS011;229;48.734;9.340;2023-04-16T04:44:23;20.42;;;14.32;;
485;SDS011;229;48.734;9.340;2023-04-16T04:46:50;21.83;;;15.02;;
485;SDS011;229;48.734;9.340;2023-04-16T04:49:19;23.05;;;15.27;;
485;SDS011;229;48.734;9.340;2023-04-16T04:51:46;20.30;;;14.35;;
485;SDS011;229;48.734;9.340;2023-04-16T04:54:14;21.90;;;15.05;;
485;SDS011;229;48.734;9.340;2023-04-16T04:56:41;19.77;;;14.43;;
485;SDS011;229;48.734;9.340;2023-04-16T04:59:09;21.23;;;14.25;;
485;SDS011;229;48.734;9.340;2023-04-16T05:01:36;22.67;;;13.73;;
485;SDS011;229;48.734;9.340;2023-04-16T05:04:04;21.83;;;14.80;;
485;SDS011;229;48.734;9.340;2023-04-16T05:06:32;22.08;;;15.13;;
485;SDS011;229;48.734;9.340;2023-04-16T05:08:59;20.98;;;14.23;;
485;SDS011;229;48.734;9.340;2023-04-16T05:11:26;23.10;;;14.55;;
485;SDS011;229;48.734;9.340;2023-04-16T05:13:54;20.88;;;15.00;;
485;SDS011;229;48.734;9.340;2023-04-16T05:16:21;21.08;;;14.68;;
485;SDS011;229;48.734;9.340;2023-04-16T05:18:48;23.40;;;15.23;;
485;SDS011;229;48.734;9.340;2023-04-16T05:21:15;23.00;;;15.98;;
485;SDS011;229;48.734;9.340;2023-04-16T05:23:44;23.02;;;14.90;;
485;SDS011;229;48.734;9.340;2023-04-16T05:26:11;24.30;;;15.57;;
485;SDS011;229;48.734;9.340;2023-04-16T05:28:38;23.65;;;15.60;;
485;SDS011;229;48.734;9.340;2023-04-16T05:31:05;23.75;;;14.90;;
485;SDS011;229;48.734;9.340;2023-04-16T05:33:32;22.55;;;15.27;;
485;SDS011;229;48.734;9.340;2023-04-16T05:36:00;25.35;;;15.85;;
485;SDS011;229;48.734;9.340;2023-04-16T05:38:27;24.35;;;15.32;;
485;SDS011;229;48.734;9.340;2023-04-16T05:40:56;22.63;;;15.02;;
485;SDS011;229;48.734;9.340;2023-04-16T05:43:23;20.75;;;13.80;;
485;SDS011;229;48.734;9.340;2023-04-16T05:45:51;22.90;;;14.80;;
485;SDS011;229;48.734;9.340;2023-04-16T05:48:18;21.88;;;14.68;;
485;SDS011;229;48.734;9.340;2023-04-16T05:50:45;22.10;;;14.35;;
485;SDS011;229;48.734;9.340;2023-04-16T05:53:12;21.58;;;14.60;;
485;SDS011;229;48.734;9.340;2023-04-16T05:55:39;19.02;;;12.95;;
485;SDS011;229;48.734;9.340;2023-04-16T05:58:08;21.88;;;14.52;;
485;SDS011;229;48.734;9.340;2023-04-16T06:00:35;25.58;;;15.63;;
485;SDS011;229;48.734;9.340;2023-04-16T06:03:02;22.48;;;15.27;;
485;SDS011;229;48.734;9.340;2023-04-16T06:05:29;20.92;;;13.90;;
485;SDS011;229;48.734;9.340;2023-04-16T06:07:57;24.30;;;16.20;;
485;SDS011;229;48.734;9.340;2023-04-16T06:10:24;27.95;;;17.15;;
485;SDS011;229;48.734;9.340;2023-04-16T06:12:51;28.30;;;18.45;;
485;SDS011;229;48.734;9.340;2023-04-16T06:15:19;27.88;;;18.70;;
485;SDS011;229;48.734;9.340;2023-04-16T06:17:48;29.70;;;17.55;;
485;SDS011;229;48.734;9.340;2023-04-16T06:20:15;29.77;;;18.33;;
485;SDS011;229;48.734;9.340;2023-04-16T06:22:42;29.35;;;18.48;;
485;SDS011;229;48.734;9.340;2023-04-16T06:25:10;34.40;;;19.65;;
485;SDS011;229;48.734;9.340;2023-04-16T06:27:37;29.13;;;18.67;;
485;SDS011;229;48.734;9.340;2023-04-16T06:30:06;33.13;;;20.45;;
485;SDS011;229;48.734;9.340;2023-04-16T06:32:38;36.90;;;21.42;;
485;SDS011;229;48.734;9.340;2023-04-16T06:35:05;34.90;;;22.15;;
485;SDS011;229;48.734;9.340;2023-04-16T06:37:33;35.67;;;22.15;;
485;SDS011;229;48.734;9.340;2023-04-16T06:40:00;34.63;;;21.85;;
485;SDS011;229;48.734;9.340;2023-04-16T06:42:27;37.65;;;21.63;;
485;SDS011;229;48.734;9.340;2023-04-16T06:44:54;40.47;;;24.25;;
485;SDS011;229;48.734;9.340;2023-04-16T06:47:22;38.38;;;23.50;;
485;SDS011;229;48.734;9.340;2023-04-16T06:49:50;38.90;;;24.27;;
485;SDS011;229;48.734;9.340;2023-04-16T06:52:17;43.33;;;25.65;;
485;SDS011;229;48.734;9.340;2023-04-16T06:54:44;45.83;;;25.60;;
485;SDS011;229;48.734;9.340;2023-04-16T06:57:12;41.42;;;24.40;;
485;SDS011;229;48.734;9.340;2023-04-16T06:59:39;42.50;;;25.65;;
485;SDS011;229;48.734;9.340;2023-04-16T07:02:06;43.05;;;25.58;;
485;SDS011;229;48.734;9.340;2023-04-16T07:04:34;42.40;;;25.85;;
485;SDS011;229;48.734;9.340;2023-04-16T07:07:03;42.33;;;25.95;;
485;SDS011;229;48.734;9.340;2023-04-16T07:09:30;45.10;;;25.98;;
485;SDS011;229;48.734;9.340;2023-04-16T07:11:57;44.03;;;25.70;;
485;SDS011;229;48.734;9.340;2023-04-16T07:14:24;43.83;;;27.45;;
485;SDS011;229;48.734;9.340;2023-04-16T07:16:51;43.47;;;26.25;;
485;SDS011;229;48.734;9.340;2023-04-16T07:19:18;48.50;;;27.73;;
485;SDS011;229;48.734;9.340;2023-04-16T07:21:46;44.28;;;26.80;;
485;SDS011;229;48.734;9.340;2023-04-16T07:24:15;43.75;;;25.65;;
485;SDS011;229;48.734;9.340;2023-04-16T07:26:42;48.38;;;27.25;;
485;SDS011;229;48.734;9.340;2023-04-16T07:29:09;49.85;;;29.10;;
485;SDS011;229;48.734;9.340;2023-04-16T07:31:37;46.42;;;26.83;;
485;SDS011;229;48.734;9.340;2023-04-16T07:34:04;48.20;;;29.10;;
485;SDS011;229;48.734;9.340;2023-04-16T07:36:31;44.80;;;29.08;;
485;SDS011;229;48.734;9.340;2023-04-16T07:38:58;44.38;;;27.10;;
485;SDS011;229;48.734;9.340;2023-04-16T07:41:27;45.55;;;27.77;;
485;SDS011;229;48.734;9.340;2023-04-16T07:43:54;44.55;;;26.40;;
485;SDS011;229;48.734;9.340;2023-04-16T07:46:21;43.42;;;26.08;;
485;SDS011;229;48.734;9.340;2023-04-16T07:48:48;46.28;;;27.25;;
485;SDS011;229;48.734;9.340;2023-04-16T07:51:16;49.55;;;29.85;;
485;SDS011;229;48.734;9.340;2023-04-16T07:53:43;44.92;;;27.05;;
485;SDS011;229;48.734;9.340;2023-04-16T07:56:10;42.20;;;25.95;;
485;SDS011;229;48.734;9.340;2023-04-16T07:58:39;43.55;;;25.27;;
485;SDS011;229;48.734;9.340;2023-04-16T08:01:06;40.47;;;25.38;;
485;SDS011;229;48.734;9.340;2023-04-16T08:03:33;39.80;;;24.50;;
485;SDS011;229;48.734;9.340;2023-04-16T08:06:00;38.92;;;25.63;;
485;SDS011;229;48.734;9.340;2023-04-16T08:08:28;39.58;;;23.25;;
485;SDS011;229;48.734;9.340;2023-04-16T08:10:55;39.83;;;24.00;;
485;SDS011;229;48.734;9.340;2023-04-16T08:13:23;41.70;;;23.35;;
485;SDS011;229;48.734;9.340;2023-04-16T08:15:51;41.13;;;23.45;;
485;SDS011;229;48.734;9.340;2023-04-16T08:18:18;42.22;;;25.08;;
485;SDS011;229;48.734;9.340;2023-04-16T08:20:45;44.72;;;24.35;;
485;SDS011;229;48.734;9.340;2023-04-16T08:23:13;37.92;;;23.38;;
485;SDS011;229;48.734;9.340;2023-04-16T08:25:40;37.95;;;23.55;;
485;SDS011;229;48.734;9.340;2023-04-16T08:28:07;35.83;;;23.65;;
485;SDS011;229;48.734;9.340;2023-04-16T08:30:34;35.13;;;23.17;;
485;SDS011;229;48.734;9.340;2023-04-16T08:33:03;42.85;;;25.42;;
485;SDS011;229;48.734;9.340;2023-04-16T08:35:30;35.95;;;23.05;;
485;SDS011;229;48.734;9.340;2023-04-16T08:37:57;37.15;;;23.23;;
485;SDS011;229;48.734;9.340;2023-04-16T08:40:25;37.30;;;23.98;;
485;SDS011;229;48.734;9.340;2023-04-16T08:42:55;37.60;;;24.38;;
485;SDS011;229;48.734;9.340;2023-04-16T08:45:24;37.50;;;22.33;;
485;SDS011;229;48.734;9.340;2023-04-16T08:47:52;35.13;;;21.15;;
485;SDS011;229;48.734;9.340;2023-04-16T08:50:22;34.95;;;22.60;;
485;SDS011;229;48.734;9.340;2023-04-16T08:52:51;35.72;;;22.65;;
485;SDS011;229;48.734;9.340;2023-04-16T08:55:18;32.03;;;19.85;;
485;SDS011;229;48.734;9.340;2023-04-16T08:57:50;35.97;;;23.33;;
485;SDS011;229;48.734;9.340;2023-04-16T09:00:18;27.95;;;19.38;;
485;SDS011;229;48.734;9.340;2023-04-16T09:02:45;31.65;;;20.00;;
485;SDS011;229;48.734;9.340;2023-04-16T09:05:14;31.25;;;20.20;;
485;SDS011;229;48.734;9.340;2023-04-16T09:07:44;28.40;;;19.40;;
485;SDS011;229;48.734;9.340;2023-04-16T09:10:11;32.35;;;21.35;;
485;SDS011;229;48.734;9.340;2023-04-16T09:12:40;29.35;;;18.98;;
485;SDS011;229;48.734;9.340;2023-04-16T09:15:08;30.90;;;20.05;;
485;SDS011;229;48.734;9.340;2023-04-16T09:17:36;28.23;;;19.40;;
485;SDS011;229;48.734;9.340;2023-04-16T09:20:04;33.03;;;19.50;;
485;SDS011;229;48.734;9.340;2023-04-16T09:22:32;27.88;;;18.05;;
485;SDS011;229;48.734;9.340;2023-04-16T09:25:01;26.48;;;17.90;;
485;SDS011;229;48.734;9.340;2023-04-16T09:27:28;25.55;;;17.73;;
485;SDS011;229;48.734;9.340;2023-04-16T09:29:56;28.25;;;19.30;;
485;SDS011;229;48.734;9.340;2023-04-16T09:32:23;27.65;;;18.35;;
485;SDS011;229;48.734;9.340;2023-04-16T09:34:54;31.27;;;19.92;;
485;SDS011;229;48.734;9.340;2023-04-16T09:37:22;31.33;;;20.23;;
485;SDS011;229;48.734;9.340;2023-04-16T09:39:53;32.65;;;20.25;;
485;SDS011;229;48.734;9.340;2023-04-16T09:42:23;31.02;;;19.92;;
485;SDS011;229;48.734;9.340;2023-04-16T09:44:51;30.23;;;18.52;;
485;SDS011;229;48.734;9.340;2023-04-16T09:47:19;31.23;;;19.55;;
485;SDS011;229;48.734;9.340;2023-04-16T09:49:46;31.25;;;20.35;;
485;SDS011;229;48.734;9.340;2023-04-16T09:52:14;30.92;;;19.35;;
485;SDS011;229;48.734;9.340;2023-04-16T09:54:44;29.88;;;21.02;;
485;SDS011;229;48.734;9.340;2023-04-16T09:57:12;29.77;;;19.95;;
485;SDS011;229;48.734;9.340;2023-04-16T09:59:41;29.10;;;17.85;;
485;SDS011;229;48.734;9.340;2023-04-16T10:02:08;25.75;;;17.63;;
485;SDS011;229;48.734;9.340;2023-04-16T10:04:45;31.08;;;18.33;;
485;SDS011;229;48.734;9.340;2023-04-16T10:07:12;27.52;;;18.27;;
485;SDS011;229;48.734;9.340;2023-04-16T10:09:40;25.38;;;17.30;;
485;SDS011;229;48.734;9.340;2023-04-16T10:12:07;26.65;;;17.77;;
485;SDS011;229;48.734;9.340;2023-04-16T10:14:37;31.13;;;19.27;;
485;SDS011;229;48.734;9.340;2023-04-16T10:17:06;29.73;;;17.98;;
485;SDS011;229;48.734;9.340;2023-04-16T10:19:33;27.35;;;17.58;;
485;SDS011;229;48.734;9.340;2023-04-16T10:22:01;26.88;;;17.75;;
485;SDS011;229;48.734;9.340;2023-04-16T10:24:29;30.63;;;18.80;;
485;SDS011;229;48.734;9.340;2023-04-16T10:26:56;28.67;;;18.65;;
485;SDS011;229;48.734;9.340;2023-04-16T10:29:31;34.72;;;19.83;;
485;SDS011;229;48.734;9.340;2023-04-16T10:31:58;26.98;;;17.85;;
485;SDS011;229;48.734;9.340;2023-04-16T10:34:27;32.00;;;19.05;;
485;SDS011;229;48.734;9.340;2023-04-16T10:36:55;28.15;;;18.52;;
485;SDS011;229;48.734;9.340;2023-04-16T10:39:23;32.53;;;18.92;;
485;SDS011;229;48.734;9.340;2023-04-16T10:41:50;27.35;;;18.00;;
485;SDS011;229;48.734;9.340;2023-04-16T10:44:32;26.27;;;16.42;;
485;SDS011;229;48.734;9.340;2023-04-16T10:46:59;25.15;;;16.23;;
485;SDS011;229;48.734;9.340;2023-04-16T10:49:27;29.20;;;17.70;;
485;SDS011;229;48.734;9.340;2023-04-16T10:51:55;31.70;;;18.15;;
485;SDS011;229;48.734;9.340;2023-04-16T10:54:24;23.40;;;15.48;;
485;SDS011;229;48.734;9.340;2023-04-16T10:56:52;27.95;;;18.27;;
485;SDS011;229;48.734;9.340;2023-04-16T10:59:20;28.00;;;17.77;;
485;SDS011;229;48.734;9.340;2023-04-16T11:01:49;25.98;;;17.33;;
485;SDS011;229;48.734;9.340;2023-04-16T11:04:26;32.80;;;18.10;;
485;SDS011;229;48.734;9.340;2023-04-16T11:07:04;25.17;;;15.93;;
485;SDS011;229;48.734;9.340;2023-04-16T11:09:41;24.02;;;14.90;;
485;SDS011;229;48.734;9.340;2023-04-16T11:12:08;32.08;;;16.58;;
485;SDS011;229;48.734;9.340;2023-04-16T11:14:37;24.70;;;15.30;;
485;SDS011;229;48.734;9.340;2023-04-16T11:17:05;28.33;;;16.10;;
485;SDS011;229;48.734;9.340;2023-04-16T11:19:34;24.58;;;15.20;;
485;SDS011;229;48.734;9.340;2023-04-16T11:22:01;27.33;;;16.10;;
485;SDS011;229;48.734;9.340;2023-04-16T11:24:30;22.85;;;14.77;;
485;SDS011;229;48.734;9.340;2023-04-16T11:26:57;25.95;;;16.10;;
485;SDS011;229;48.734;9.340;2023-04-16T11:29:25;24.23;;;15.18;;
485;SDS011;229;48.734;9.340;2023-04-16T11:31:53;21.48;;;14.70;;
485;SDS011;229;48.734;9.340;2023-04-16T11:34:20;22.92;;;14.75;;
485;SDS011;229;48.734;9.340;2023-04-16T11:36:48;21.05;;;14.05;;
485;SDS011;229;48.734;9.340;2023-04-16T11:39:18;17.83;;;11.77;;
485;SDS011;229;48.734;9.340;2023-04-16T11:41:47;18.08;;;11.38;;
485;SDS011;229;48.734;9.340;2023-04-16T11:44:17;17.85;;;11.52;;
485;SDS011;229;48.734;9.340;2023-04-16T11:46:44;19.45;;;11.82;;
485;SDS011;229;48.734;9.340;2023-04-16T11:49:11;18.02;;;12.27;;
485;SDS011;229;48.734;9.340;2023-04-16T11:51:39;18.60;;;12.02;;
485;SDS011;229;48.734;9.340;2023-04-16T11:54:06;17.95;;;10.82;;
485;SDS011;229;48.734;9.340;2023-04-16T11:56:34;17.70;;;11.52;;
485;SDS011;229;48.734;9.340;2023-04-16T11:59:07;13.80;;;9.93;;
485;SDS011;229;48.734;9.340;2023-04-16T12:01:34;14.88;;;10.45;;
485;SDS011;229;48.734;9.340;2023-04-16T12:04:02;16.02;;;10.65;;
485;SDS011;229;48.734;9.340;2023-04-16T12:06:32;15.90;;;10.00;;
485;SDS011;229;48.734;9.340;2023-04-16T12:08:59;16.45;;;9.18;;
485;SDS011;229;48.734;9.340;2023-04-16T12:11:38;14.45;;;10.32;;
485;SDS011;229;48.734;9.340;2023-04-16T12:14:07;10.77;;;7.80;;
485;SDS011;229;48.734;9.340;2023-04-16T12:16:34;12.00;;;8.00;;
485;SDS011;229;48.734;9.340;2023-04-16T12:19:02;12.05;;;8.95;;
485;SDS011;229;48.734;9.340;2023-04-16T12:21:36;10.25;;;7.75;;
485;SDS011;229;48.734;9.340;2023-04-16T12:24:04;12.88;;;8.30;;
485;SDS011;229;48.734;9.340;2023-04-16T12:26:41;13.60;;;8.95;;
485;SDS011;229;48.734;9.340;2023-04-16T12:29:17;12.52;;;8.35;;
485;SDS011;229;48.734;9.340;2023-04-16T12:31:44;12.05;;;8.70;;
485;SDS011;229;48.734;9.340;2023-04-16T12:34:11;11.50;;;7.50;;
485;SDS011;229;48.734;9.340;2023-04-16T12:36:39;17.75;;;11.55;;
485;SDS011;229;48.734;9.340;2023-04-16T12:39:06;9.90;;;7.13;;
485;SDS011;229;48.734;9.340;2023-04-16T12:41:36;11.00;;;7.65;;
485;SDS011;229;48.734;9.340;2023-04-16T12:44:04;11.00;;;7.97;;
485;SDS011;229;48.734;9.340;2023-04-16T12:46:35;11.80;;;9.10;;
485;SDS011;229;48.734;9.340;2023-04-16T12:49:05;14.77;;;10.02;;
485;SDS011;229;48.734;9.340;2023-04-16T12:51:32;12.80;;;8.85;;
485;SDS011;229;48.734;9.340;2023-04-16T12:54:00;11.05;;;7.45;;
485;SDS011;229;48.734;9.340;2023-04-16T12:56:27;12.55;;;9.50;;
485;SDS011;229;48.734;9.340;2023-04-16T12:58:54;11.45;;;8.30;;
485;SDS011;229;48.734;9.340;2023-04-16T13:01:22;10.73;;;7.38;;
485;SDS011;229;48.734;9.340;2023-04-16T13:03:50;13.07;;;7.97;;
485;SDS011;229;48.734;9.340;2023-04-16T13:06:18;11.10;;;8.00;;
485;SDS011;229;48.734;9.340;2023-04-16T13:08:45;9.75;;;6.80;;
485;SDS011;229;48.734;9.340;2023-04-16T13:11:13;12.68;;;7.38;;
485;SDS011;229;48.734;9.340;2023-04-16T13:13:40;10.10;;;6.38;;
485;SDS011;229;48.734;9.340;2023-04-16T13:16:07;10.32;;;7.70;;
485;SDS011;229;48.734;9.340;2023-04-16T13:18:35;13.27;;;7.75;;
485;SDS011;229;48.734;9.340;2023-04-16T13:21:04;12.27;;;8.35;;
485;SDS011;229;48.734;9.340;2023-04-16T13:23:32;9.73;;;7.30;;
485;SDS011;229;48.734;9.340;2023-04-16T13:26:00;9.30;;;6.95;;
485;SDS011;229;48.734;9.340;2023-04-16T13:28:27;9.38;;;7.25;;
485;SDS011;229;48.734;9.340;2023-04-16T13:30:54;10.15;;;7.70;;
485;SDS011;229;48.734;9.340;2023-04-16T13:33:21;9.23;;;7.40;;
485;SDS011;229;48.734;9.340;2023-04-16T13:35:49;11.50;;;7.88;;
485;SDS011;229;48.734;9.340;2023-04-16T13:38:17;11.10;;;8.65;;
485;SDS011;229;48.734;9.340;2023-04-16T13:40:45;11.60;;;8.45;;
485;SDS011;229;48.734;9.340;2023-04-16T13:43:12;11.20;;;8.35;;
485;SDS011;229;48.734;9.340;2023-04-16T13:45:41;10.38;;;7.78;;
485;SDS011;229;48.734;9.340;2023-04-16T13:48:08;13.32;;;8.27;;
485;SDS011;229;48.734;9.340;2023-04-16T13:50:35;11.00;;;8.48;;
485;SDS011;229;48.734;9.340;2023-04-16T13:53:03;14.45;;;10.45;;
485;SDS011;229;48.734;9.340;2023-04-16T13:55:31;12.75;;;9.30;;
485;SDS011;229;48.734;9.340;2023-04-16T13:57:59;16.23;;;9.30;;
485;SDS011;229;48.734;9.340;2023-04-16T14:00:26;14.18;;;9.45;;
485;SDS011;229;48.734;9.340;2023-04-16T14:02:54;13.35;;;9.32;;
485;SDS011;229;48.734;9.340;2023-04-16T14:05:21;15.90;;;11.25;;
485;SDS011;229;48.734;9.340;2023-04-16T14:07:48;12.43;;;9.48;;
485;SDS011;229;48.734;9.340;2023-04-16T14:10:15;12.77;;;9.60;;
485;SDS011;229;48.734;9.340;2023-04-16T14:12:44;12.48;;;9.20;;
485;SDS011;229;48.734;9.340;2023-04-16T14:15:11;13.82;;;9.90;;
485;SDS011;229;48.734;9.340;2023-04-16T14:17:40;13.88;;;8.82;;
485;SDS011;229;48.734;9.340;2023-04-16T14:20:08;12.30;;;9.40;;
485;SDS011;229;48.734;9.340;2023-04-16T14:22:36;12.40;;;9.85;;
485;SDS011;229;48.734;9.340;2023-04-16T14:25:04;15.13;;;9.70;;
485;SDS011;229;48.734;9.340;2023-04-16T14:27:31;17.13;;;11.73;;
485;SDS011;229;48.734;9.340;2023-04-16T14:30:00;15.50;;;10.85;;
485;SDS011;229;48.734;9.340;2023-04-16T14:32:27;16.50;;;11.13;;
485;SDS011;229;48.734;9.340;2023-04-16T14:34:55;14.80;;;10.70;;
485;SDS011;229;48.734;9.340;2023-04-16T14:37:22;15.02;;;10.43;;
485;SDS011;229;48.734;9.340;2023-04-16T14:39:50;13.73;;;10.77;;
485;SDS011;229;48.734;9.340;2023-04-16T14:42:18;17.60;;;11.52;;
485;SDS011;229;48.734;9.340;2023-04-16T14:44:46;14.15;;;10.75;;
485;SDS011;229;48.734;9.340;2023-04-16T14:47:14;16.15;;;11.50;;
485;SDS011;229;48.734;9.340;2023-04-16T14:49:42;32.08;;;12.98;;
485;SDS011;229;48.734;9.340;2023-04-16T14:52:09;18.05;;;11.68;;
485;SDS011;229;48.734;9.340;2023-04-16T14:54:37;20.35;;;12.13;;
485;SDS011;229;48.734;9.340;2023-04-16T14:57:04;17.90;;;11.95;;
485;SDS011;229;48.734;9.340;2023-04-16T14:59:31;16.67;;;11.82;;
485;SDS011;229;48.734;9.340;2023-04-16T15:01:58;20.30;;;13.02;;
485;SDS011;229;48.734;9.340;2023-04-16T15:04:27;19.00;;;12.68;;
485;SDS011;229;48.734;9.340;2023-04-16T15:06:55;18.50;;;12.98;;
485;SDS011;229;48.734;9.340;2023-04-16T15:09:23;18.20;;;13.18;;
485;SDS011;229;48.734;9.340;2023-04-16T15:11:51;19.33;;;12.70;;
485;SDS011;229;48.734;9.340;2023-04-16T15:14:18;17.85;;;12.85;;
485;SDS011;229;48.734;9.340;2023-04-16T15:16:45;21.05;;;13.57;;
485;SDS011;229;48.734;9.340;2023-04-16T15:19:13;22.90;;;14.50;;
485;SDS011;229;48.734;9.340;2023-04-16T15:21:42;21.10;;;14.77;;